Time;durP1;ratioP1;P1;durP2;ratioP2;P2;SDS_P1;SDS_P2;PMS_P1;PMS_P2;Temp;Humidity;BMP_temperature;BMP_pressure;BME280_temperature;BME280_humidity;BME280_pressure;Samples;Min_cycle;Max_cycle;Signal;HPM_P1;HPM_P2
2023/03/29 00:00:01;;;;;;;1.70;1.10;;;1.40;99.90;;;;;;5008444;28;20585;-73
2023/03/29 00:02:41;;;;;;;3.20;1.50;;;1.40;99.90;;;;;;4999885;28;20049;-71
2023/03/29 00:05:11;;;;;;;1.48;1.38;;;1.40;99.90;;;;;;4998418;28;20050;-71
2023/03/29 00:07:38;;;;;;;1.50;1.23;;;1.40;99.90;;;;;;5009606;28;20064;-70
2023/03/29 00:10:08;;;;;;;1.77;1.40;;;1.40;99.90;;;;;;5010539;28;20081;-71
2023/03/29 00:12:36;;;;;;;1.60;1.20;;;1.40;99.90;;;;;;5013798;28;20054;-72
2023/03/29 00:15:07;;;;;;;1.40;1.00;;;1.40;99.90;;;;;;4996961;28;20046;-72
2023/03/29 00:17:34;;;;;;;1.55;1.27;;;1.30;99.90;;;;;;5014982;28;20116;-72
2023/03/29 00:20:06;;;;;;;1.30;1.20;;;1.30;99.90;;;;;;5014999;28;20509;-70
2023/03/29 00:22:33;;;;;;;1.40;1.30;;;1.30;99.90;;;;;;5015115;28;20132;-70
2023/03/29 00:25:00;;;;;;;1.48;1.10;;;1.30;99.90;;;;;;5015017;28;20136;-71
2023/03/29 00:27:28;;;;;;;1.25;1.15;;;1.20;99.90;;;;;;5013560;28;20469;-71
2023/03/29 00:29:56;;;;;;;1.75;0.90;;;1.20;99.90;;;;;;5015037;28;20137;-71
2023/03/29 00:32:24;;;;;;;1.58;1.25;;;1.20;99.90;;;;;;5013947;28;20053;-71
2023/03/29 00:34:53;;;;;;;1.00;1.00;;;1.20;99.90;;;;;;5013618;28;20049;-73
2023/03/29 00:37:25;;;;;;;1.50;1.38;;;1.30;99.90;;;;;;4991901;28;20046;-70
2023/03/29 00:39:53;;;;;;;1.48;1.38;;;1.20;99.90;;;;;;4993715;28;20089;-71
2023/03/29 00:42:20;;;;;;;1.58;1.30;;;1.20;99.90;;;;;;4994439;28;20042;-71
2023/03/29 00:45:02;;;;;;;1.38;1.23;;;1.20;99.90;;;;;;5006392;28;20489;-70
2023/03/29 00:47:37;;;;;;;1.48;1.38;;;1.30;99.90;;;;;;5012937;28;20104;-71
2023/03/29 00:50:14;;;;;;;1.42;1.33;;;1.20;99.90;;;;;;5013051;28;20068;-71
2023/03/29 00:52:54;;;;;;;1.40;1.30;;;1.20;99.90;;;;;;4994983;28;20061;-71
2023/03/29 00:55:25;;;;;;;1.63;1.40;;;1.20;99.90;;;;;;5008803;28;20313;-71
2023/03/29 00:57:56;;;;;;;2.35;1.58;;;1.30;99.90;;;;;;5001743;28;20065;-70
2023/03/29 01:00:30;;;;;;;1.83;1.60;;;1.30;99.90;;;;;;5026713;28;20057;-71
2023/03/29 01:03:01;;;;;;;1.33;1.23;;;1.30;99.90;;;;;;4999072;28;20053;-72
2023/03/29 01:05:32;;;;;;;1.52;1.42;;;1.20;99.90;;;;;;5000711;28;20058;-73
2023/03/29 01:08:06;;;;;;;2.33;1.52;;;1.30;99.90;;;;;;4992640;28;20042;-72
2023/03/29 01:10:39;;;;;;;1.75;1.55;;;1.20;99.90;;;;;;4976730;28;20050;-73
2023/03/29 01:13:11;;;;;;;1.83;1.70;;;1.20;99.90;;;;;;5001600;28;20042;-73
2023/03/29 01:15:42;;;;;;;2.08;1.67;;;1.20;99.90;;;;;;5012373;28;20111;-72
2023/03/29 01:18:10;;;;;;;1.63;1.52;;;1.10;99.90;;;;;;5028812;28;20084;-72
2023/03/29 01:21:01;;;;;;;2.20;1.70;;;1.20;99.90;;;;;;5011082;28;20095;-72
2023/03/29 01:23:52;;;;;;;2.03;1.83;;;1.20;99.90;;;;;;4990074;28;20054;-72
2023/03/29 01:26:28;;;;;;;2.50;1.70;;;1.10;99.90;;;;;;5000266;28;20418;-71
2023/03/29 01:29:02;;;;;;;1.65;1.55;;;1.20;99.90;;;;;;4999521;28;20101;-72
2023/03/29 01:31:36;;;;;;;2.20;1.98;;;1.20;99.90;;;;;;5004908;28;20057;-71
2023/03/29 01:34:10;;;;;;;2.20;1.80;;;1.20;99.90;;;;;;4993687;28;20061;-71
2023/03/29 01:36:45;;;;;;;1.55;1.45;;;1.20;99.90;;;;;;5008981;28;20053;-71
2023/03/29 01:39:13;;;;;;;2.20;2.00;;;1.10;99.90;;;;;;5010788;28;20065;-71
2023/03/29 01:41:48;;;;;;;1.83;1.70;;;1.10;99.90;;;;;;5018714;28;20053;-71
2023/03/29 01:44:23;;;;;;;2.05;1.60;;;1.00;99.90;;;;;;4993624;28;20145;-71
2023/03/29 01:46:55;;;;;;;2.45;1.85;;;1.10;99.90;;;;;;5002032;28;20045;-71
2023/03/29 01:49:28;;;;;;;1.77;1.67;;;1.10;99.90;;;;;;5013808;28;20058;-71
2023/03/29 01:52:01;;;;;;;2.25;1.75;;;1.10;99.90;;;;;;5000204;28;20082;-72
2023/03/29 01:54:31;;;;;;;;;;;1.10;99.90;;;;;;5004021;28;20483;-71
2023/03/29 01:57:01;;;;;;;2.97;1.80;;;1.10;99.90;;;;;;4998737;28;20269;-73
2023/03/29 01:59:34;;;;;;;1.70;1.60;;;1.10;99.90;;;;;;5002118;28;20189;-72
2023/03/29 02:02:10;;;;;;;2.72;1.90;;;1.10;99.90;;;;;;5007362;28;20054;-73
2023/03/29 02:04:43;;;;;;;1.92;1.75;;;1.10;99.90;;;;;;5012179;28;20561;-75
2023/03/29 02:07:15;;;;;;;2.42;1.83;;;1.10;99.90;;;;;;5009212;28;20054;-74
2023/03/29 02:09:44;;;;;;;2.45;2.10;;;1.10;99.90;;;;;;5026943;28;20058;-73
2023/03/29 02:12:13;;;;;;;2.88;2.40;;;1.10;99.90;;;;;;5003683;28;20485;-73
2023/03/29 02:14:42;;;;;;;2.53;2.00;;;1.10;99.90;;;;;;4992000;28;20042;-73
2023/03/29 02:17:17;;;;;;;3.15;2.10;;;1.00;99.90;;;;;;5009517;28;20064;-73
2023/03/29 02:19:49;;;;;;;3.35;3.05;;;1.00;99.90;;;;;;4999628;28;20415;-73
2023/03/29 02:22:23;;;;;;;;;;;1.00;99.90;;;;;;5007010;28;20058;-74
2023/03/29 02:24:58;;;;;;;2.17;1.90;;;1.10;99.90;;;;;;4997709;28;20408;-73
2023/03/29 02:27:28;;;;;;;3.05;2.55;;;1.00;99.90;;;;;;5005915;28;20058;-73
2023/03/29 02:29:59;;;;;;;2.70;2.20;;;1.00;99.90;;;;;;4996260;28;20054;-74
2023/03/29 02:32:35;;;;;;;3.42;2.63;;;1.00;99.90;;;;;;5011337;28;20080;-74
2023/03/29 02:35:11;;;;;;;4.18;2.67;;;1.00;99.90;;;;;;4994496;28;20684;-75
2023/03/29 02:37:41;;;;;;;2.75;2.42;;;1.10;99.90;;;;;;5000458;28;20160;-74
2023/03/29 02:40:12;;;;;;;4.10;3.17;;;1.10;99.90;;;;;;5010086;28;20562;-73
2023/03/29 02:42:41;;;;;;;3.47;2.67;;;1.10;99.90;;;;;;4975329;28;20054;-74
2023/03/29 02:45:14;;;;;;;3.50;2.47;;;1.10;99.90;;;;;;4991515;28;20191;-74
2023/03/29 02:47:47;;;;;;;3.60;2.67;;;1.10;99.90;;;;;;4993942;28;20145;-74
2023/03/29 02:50:15;;;;;;;3.47;3.17;;;1.10;99.90;;;;;;4990543;28;20467;-74
2023/03/29 02:52:52;;;;;;;4.05;2.75;;;1.10;99.90;;;;;;4976814;28;20149;-74
2023/03/29 02:55:23;;;;;;;3.75;2.97;;;1.10;99.90;;;;;;5004907;28;20549;-74
2023/03/29 02:57:50;;;;;;;5.35;3.47;;;1.10;99.90;;;;;;4991215;28;20053;-75
2023/03/29 03:00:22;;;;;;;3.33;3.03;;;1.10;99.90;;;;;;4976284;28;20069;-74
2023/03/29 03:02:50;;;;;;;2.83;2.63;;;1.20;99.90;;;;;;5007598;28;20045;-74
2023/03/29 03:05:18;;;;;;;2.75;2.50;;;1.20;99.90;;;;;;4994428;28;20054;-75
2023/03/29 03:07:46;;;;;;;5.53;3.42;;;1.10;99.90;;;;;;4996930;28;20587;-74
2023/03/29 03:10:14;;;;;;;4.82;3.58;;;1.10;99.90;;;;;;4998537;28;20054;-74
2023/03/29 03:12:42;;;;;;;5.90;3.80;;;1.10;99.90;;;;;;4990191;28;20054;-74
2023/03/29 03:15:11;;;;;;;4.95;3.60;;;1.10;99.90;;;;;;4994358;28;20418;-75
2023/03/29 03:17:41;;;;;;;4.15;3.03;;;1.10;99.90;;;;;;4998188;28;20530;-74
2023/03/29 03:20:12;;;;;;;3.67;3.38;;;1.10;99.90;;;;;;5002277;28;20502;-75
2023/03/29 03:22:44;;;;;;;3.10;2.80;;;1.10;99.90;;;;;;5010599;28;20141;-73
2023/03/29 03:25:12;;;;;;;4.22;3.00;;;1.00;99.90;;;;;;5018516;28;20080;-76
2023/03/29 03:27:41;;;;;;;3.80;3.00;;;1.00;99.90;;;;;;4990552;28;20050;-74
2023/03/29 03:30:10;;;;;;;4.43;3.35;;;1.00;99.90;;;;;;4993832;28;20069;-74
2023/03/29 03:33:11;;;;;;;4.82;3.55;;;1.00;99.90;;;;;;4994994;28;20045;-73
2023/03/29 03:35:48;;;;;;;4.53;3.20;;;1.00;99.90;;;;;;5003734;28;20046;-73
2023/03/29 03:38:17;;;;;;;3.78;2.85;;;0.90;99.90;;;;;;5007796;28;20065;-74
2023/03/29 03:40:54;;;;;;;2.63;2.33;;;0.90;99.90;;;;;;5006319;28;20053;-73
2023/03/29 03:43:21;;;;;;;;;;;0.80;99.90;;;;;;5014562;28;20057;-73
2023/03/29 03:45:50;;;;;;;3.20;2.10;;;0.80;99.90;;;;;;4990897;28;20301;-74
2023/03/29 03:48:24;;;;;;;3.60;2.70;;;0.80;99.90;;;;;;4988442;28;20503;-74
2023/03/29 03:51:27;;;;;;;5.10;2.95;;;0.80;99.90;;;;;;5003045;28;20048;-74
2023/03/29 03:53:54;;;;;;;3.05;2.70;;;0.80;99.90;;;;;;4998795;28;20088;-74
2023/03/29 03:56:34;;;;;;;4.60;2.95;;;0.80;99.90;;;;;;4997812;28;20046;-74
2023/03/29 03:59:05;;;;;;;3.10;2.80;;;0.80;99.90;;;;;;5007475;28;20164;-75
2023/03/29 04:01:50;;;;;;;2.75;2.55;;;0.80;99.90;;;;;;5012245;28;20061;-75
2023/03/29 04:04:23;;;;;;;4.53;2.80;;;0.80;99.90;;;;;;4999861;28;20065;-74
2023/03/29 04:07:08;;;;;;;3.95;3.38;;;0.80;99.90;;;;;;4993017;28;20050;-74
2023/03/29 04:09:40;;;;;;;4.80;3.60;;;0.80;99.90;;;;;;4990747;28;20051;-75
2023/03/29 04:12:26;;;;;;;5.03;3.35;;;0.80;99.90;;;;;;5003038;28;20061;-74
2023/03/29 04:14:55;;;;;;;5.85;3.13;;;0.80;99.90;;;;;;5006173;28;20046;-74
2023/03/29 04:17:24;;;;;;;4.93;3.30;;;0.80;99.90;;;;;;4983343;28;20046;-75
2023/03/29 04:20:00;;;;;;;4.03;2.92;;;0.80;99.90;;;;;;4998520;28;20046;-74
2023/03/29 04:22:31;;;;;;;4.00;3.22;;;0.80;99.90;;;;;;5008261;28;20078;-74
2023/03/29 04:24:59;;;;;;;3.90;3.47;;;0.80;99.90;;;;;;4973412;28;20105;-75
2023/03/29 04:27:35;;;;;;;6.28;3.50;;;0.90;99.90;;;;;;4994121;28;20498;-74
2023/03/29 04:30:10;;;;;;;4.95;3.60;;;0.90;99.90;;;;;;4999115;28;20140;-75
2023/03/29 04:32:56;;;;;;;3.80;3.33;;;1.00;99.90;;;;;;5008636;28;20119;-74
2023/03/29 04:35:26;;;;;;;9.43;4.50;;;1.00;99.90;;;;;;4987543;28;20046;-75
2023/03/29 04:37:54;;;;;;;5.32;3.60;;;0.90;99.90;;;;;;4995448;28;20034;-75
2023/03/29 04:40:23;;;;;;;4.05;3.60;;;1.00;99.90;;;;;;4992883;28;20469;-75
2023/03/29 04:43:03;;;;;;;4.13;3.38;;;1.00;99.90;;;;;;4996679;28;20100;-76
2023/03/29 04:45:32;;;;;;;9.45;4.47;;;1.00;99.90;;;;;;5020427;28;20081;-76
2023/03/29 04:48:09;;;;;;;6.18;4.15;;;1.10;99.90;;;;;;4982429;28;20045;-76
2023/03/29 04:50:41;;;;;;;7.55;4.25;;;1.10;99.90;;;;;;5001121;28;20088;-76
2023/03/29 04:53:08;;;;;;;4.82;3.78;;;1.10;99.90;;;;;;5016660;28;20046;-76
2023/03/29 04:55:36;;;;;;;7.00;4.45;;;1.10;99.90;;;;;;5005399;28;20058;-76
2023/03/29 04:58:04;;;;;;;8.05;4.90;;;1.10;99.90;;;;;;4991457;28;20521;-76
2023/03/29 05:00:34;;;;;;;8.07;4.63;;;1.10;99.90;;;;;;5005060;28;20052;-75
2023/03/29 05:03:10;;;;;;;8.77;3.53;;;1.20;99.90;;;;;;5008348;28;20046;-74
2023/03/29 05:05:43;;;;;;;8.52;4.28;;;1.20;99.90;;;;;;5008232;28;20058;-75
2023/03/29 05:08:11;;;;;;;5.85;4.18;;;1.20;99.90;;;;;;4988370;28;20076;-74
2023/03/29 05:10:58;;;;;;;7.32;3.85;;;1.20;99.90;;;;;;5009192;28;20050;-73
2023/03/29 05:13:28;;;;;;;4.88;3.83;;;1.30;99.90;;;;;;5013557;28;20080;-74
2023/03/29 05:15:56;;;;;;;6.68;3.88;;;1.30;99.90;;;;;;5008050;28;20514;-74
2023/03/29 05:18:25;;;;;;;5.78;3.42;;;1.30;99.90;;;;;;5010001;28;20041;-75
2023/03/29 05:20:54;;;;;;;4.43;3.30;;;1.30;99.90;;;;;;4991339;28;20509;-76
2023/03/29 05:23:22;;;;;;;5.53;4.07;;;1.40;99.90;;;;;;4993156;28;20057;-75
2023/03/29 05:26:13;;;;;;;4.25;3.85;;;1.40;99.90;;;;;;5009172;28;20060;-75
2023/03/29 05:28:41;;;;;;;4.80;4.00;;;1.50;99.90;;;;;;4995389;28;20049;-75
2023/03/29 05:31:11;;;;;;;4.47;3.65;;;1.50;99.90;;;;;;5011963;28;20144;-74
2023/03/29 05:33:40;;;;;;;6.17;4.20;;;1.60;99.90;;;;;;5006321;28;20045;-74
2023/03/29 05:36:13;;;;;;;5.05;4.22;;;1.60;99.90;;;;;;4997905;28;20047;-76
2023/03/29 05:38:46;;;;;;;4.72;4.05;;;1.60;99.90;;;;;;5002046;28;20415;-73
2023/03/29 05:41:16;;;;;;;7.00;3.63;;;1.60;99.90;;;;;;5007390;28;20050;-76
2023/03/29 05:43:56;;;;;;;5.53;4.00;;;1.60;99.90;;;;;;4993400;28;20052;-73
2023/03/29 05:46:26;;;;;;;7.55;3.78;;;1.70;99.90;;;;;;4997193;28;20046;-74
2023/03/29 05:48:57;;;;;;;5.70;3.50;;;1.70;99.90;;;;;;5011869;28;20054;-73
2023/03/29 05:51:44;;;;;;;6.75;3.88;;;1.70;99.90;;;;;;5007739;28;20050;-75
2023/03/29 05:54:16;;;;;;;9.18;3.80;;;1.70;99.90;;;;;;4996931;28;20060;-74
2023/03/29 05:56:43;;;;;;;7.57;3.92;;;1.70;99.90;;;;;;5006622;28;20401;-75
2023/03/29 05:59:12;;;;;;;10.40;4.07;;;1.80;99.90;;;;;;5010674;28;20041;-74
2023/03/29 06:01:40;;;;;;;8.45;3.80;;;1.80;99.90;;;;;;5002035;28;20557;-74
2023/03/29 06:04:11;;;;;;;4.30;3.65;;;1.80;99.90;;;;;;5011543;28;20567;-74
2023/03/29 06:06:51;;;;;;;7.03;3.83;;;1.80;99.90;;;;;;5020615;28;20519;-74
2023/03/29 06:09:20;;;;;;;8.18;4.60;;;1.80;99.90;;;;;;4986539;28;20518;-73
2023/03/29 06:12:05;;;;;;;8.43;4.13;;;1.80;99.90;;;;;;5000489;28;20585;-74
2023/03/29 06:14:39;;;;;;;7.60;3.75;;;1.80;99.90;;;;;;5007794;28;20069;-74
2023/03/29 06:17:19;;;;;;;5.10;4.03;;;1.80;99.90;;;;;;4995392;28;20050;-74
2023/03/29 06:19:48;;;;;;;4.65;3.95;;;1.90;99.90;;;;;;5014646;28;20042;-73
2023/03/29 06:22:19;;;;;;;7.55;4.03;;;1.90;99.90;;;;;;5006029;28;20065;-73
2023/03/29 06:24:47;;;;;;;7.13;3.83;;;2.00;99.90;;;;;;5011114;28;20091;-73
2023/03/29 06:27:23;;;;;;;5.10;4.30;;;2.00;99.90;;;;;;5011322;28;20053;-73
2023/03/29 06:29:52;;;;;;;6.20;3.78;;;2.10;99.90;;;;;;4991960;28;20417;-73
2023/03/29 06:32:21;;;;;;;4.55;3.28;;;2.20;99.90;;;;;;5001749;28;20141;-74
2023/03/29 06:34:55;;;;;;;6.50;4.32;;;2.20;99.90;;;;;;5011166;28;20049;-74
2023/03/29 06:37:39;;;;;;;7.05;4.25;;;2.30;99.90;;;;;;5011451;28;20140;-74
2023/03/29 06:40:17;;;;;;;6.47;4.32;;;2.40;99.90;;;;;;5011549;28;20109;-73
2023/03/29 06:42:46;;;;;;;6.25;4.57;;;2.50;99.90;;;;;;5015982;28;20132;-74
2023/03/29 06:45:22;;;;;;;7.70;4.55;;;2.50;99.90;;;;;;5000680;28;20054;-74
2023/03/29 06:47:51;;;;;;;8.40;4.43;;;2.50;99.90;;;;;;5010424;28;20046;-75
2023/03/29 06:50:19;;;;;;;8.43;4.80;;;2.60;99.90;;;;;;5012809;28;20046;-73
2023/03/29 06:53:09;;;;;;;9.88;4.82;;;2.60;99.90;;;;;;5001898;28;20356;-72
2023/03/29 06:55:36;;;;;;;7.68;5.00;;;2.70;99.90;;;;;;5010873;28;20046;-75
2023/03/29 06:58:40;;;;;;;7.50;5.10;;;2.70;99.90;;;;;;4972363;28;20102;-74
2023/03/29 07:01:23;;;;;;;4.95;4.45;;;2.80;99.90;;;;;;4999081;28;20042;-79
2023/03/29 07:03:59;;;;;;;5.32;4.63;;;2.90;99.90;;;;;;5017325;28;20096;-76
2023/03/29 07:06:35;;;;;;;6.47;5.07;;;2.90;99.90;;;;;;5025662;28;20041;-80
2023/03/29 07:09:05;;;;;;;6.65;4.25;;;3.00;99.90;;;;;;4989175;28;20047;-80
2023/03/29 07:12:06;;;;;;;7.45;3.85;;;3.00;99.90;;;;;;4990173;28;20061;-79
2023/03/29 07:14:34;;;;;;;6.15;5.55;;;3.10;99.90;;;;;;5007944;28;20042;-74
2023/03/29 07:17:02;;;;;;;7.18;4.68;;;3.00;99.90;;;;;;5004340;28;20061;-72
2023/03/29 07:19:35;;;;;;;6.10;5.18;;;3.00;99.90;;;;;;4998293;28;20076;-73
2023/03/29 07:22:15;;;;;;;6.00;4.40;;;3.00;99.90;;;;;;5006209;28;20388;-75
2023/03/29 07:25:08;;;;;;;8.05;5.57;;;2.90;99.90;;;;;;4993066;28;20053;-79
2023/03/29 07:27:36;;;;;;;5.60;4.70;;;2.80;99.90;;;;;;5007618;28;20184;-79
2023/03/29 07:30:10;;;;;;;6.78;5.30;;;2.70;99.90;;;;;;4992444;28;20069;-78
2023/03/29 07:32:39;;;;;;;7.85;4.80;;;2.70;99.90;;;;;;5012175;28;20050;-74
2023/03/29 07:35:29;;;;;;;8.80;4.90;;;2.60;99.90;;;;;;4995583;28;20046;-74
2023/03/29 07:38:00;;;;;;;6.20;4.03;;;2.50;99.90;;;;;;5000323;28;20056;-75
2023/03/29 07:40:30;;;;;;;6.55;4.82;;;2.50;99.90;;;;;;5002648;28;20527;-73
2023/03/29 07:42:59;;;;;;;10.30;5.00;;;2.40;99.90;;;;;;4995523;28;20112;-74
2023/03/29 07:45:32;;;;;;;6.38;4.40;;;2.30;99.90;;;;;;4996176;28;20050;-77
2023/03/29 07:48:07;;;;;;;7.55;4.82;;;2.40;99.90;;;;;;5006327;28;20280;-78
2023/03/29 07:50:55;;;;;;;6.40;4.35;;;2.50;99.90;;;;;;5003305;28;20440;-75
2023/03/29 07:53:29;;;;;;;5.90;4.38;;;2.50;99.90;;;;;;5008608;28;20103;-78
2023/03/29 07:56:01;;;;;;;9.85;5.45;;;2.70;99.90;;;;;;5010148;28;20050;-78
2023/03/29 07:58:53;;;;;;;6.82;4.82;;;2.80;99.90;;;;;;5003220;28;20508;-72
2023/03/29 08:01:22;;;;;;;6.95;4.80;;;2.80;99.90;;;;;;4978719;28;20057;-74
2023/03/29 08:04:13;;;;;;;8.38;4.78;;;2.80;99.90;;;;;;4990700;28;20042;-73
2023/03/29 08:07:07;;;;;;;7.72;4.80;;;2.80;99.90;;;;;;5008482;28;20521;-73
2023/03/29 08:10:14;;;;;;;4.47;4.00;;;2.80;99.90;;;;;;4972928;28;20141;-74
2023/03/29 08:13:03;;;;;;;9.43;4.80;;;3.00;99.90;;;;;;5005095;28;20515;-77
2023/03/29 08:15:45;;;;;;;5.72;4.63;;;3.10;99.90;;;;;;5006327;28;20050;-77
2023/03/29 08:18:26;;;;;;;4.88;4.03;;;3.20;99.90;;;;;;5011962;28;20053;-78
2023/03/29 08:20:53;;;;;;;5.03;4.03;;;3.30;99.90;;;;;;5028306;28;20052;-77
2023/03/29 08:23:21;;;;;;;4.75;4.13;;;3.40;99.90;;;;;;5017299;28;20077;-73
2023/03/29 08:26:01;;;;;;;7.75;4.45;;;3.40;99.90;;;;;;5004760;28;20141;-74
2023/03/29 08:28:33;;;;;;;6.68;4.65;;;3.40;99.90;;;;;;4997604;28;20089;-75
2023/03/29 08:31:01;;;;;;;8.10;4.80;;;3.40;99.90;;;;;;4988884;28;20134;-77
2023/03/29 08:33:29;;;;;;;5.95;4.95;;;3.30;99.90;;;;;;5013480;28;20093;-77
2023/03/29 08:36:17;;;;;;;14.27;5.47;;;3.20;99.90;;;;;;5013717;28;20069;-76
2023/03/29 08:38:46;;;;;;;10.20;5.40;;;3.10;99.90;;;;;;5005099;28;20556;-77
2023/03/29 08:41:35;;;;;;;8.05;5.45;;;3.10;99.90;;;;;;5012294;28;20140;-77
2023/03/29 08:44:25;;;;;;;8.52;4.47;;;3.10;99.90;;;;;;5006487;28;20304;-79
2023/03/29 08:47:07;;;;;;;10.55;4.75;;;3.30;99.90;;;;;;5006779;28;20144;-74
2023/03/29 08:49:42;;;;;;;9.05;5.03;;;3.40;99.90;;;;;;5022351;28;20050;-73
2023/03/29 08:52:22;;;;;;;7.00;4.90;;;3.50;99.90;;;;;;5020900;28;20046;-74
2023/03/29 08:54:56;;;;;;;6.65;5.00;;;3.50;99.90;;;;;;5004841;28;20052;-74
2023/03/29 08:57:46;;;;;;;7.75;5.65;;;3.40;99.90;;;;;;5013014;28;20081;-72
2023/03/29 09:00:33;;;;;;;6.68;4.88;;;3.40;99.90;;;;;;5006992;28;20096;-73
2023/03/29 09:03:03;;;;;;;5.38;4.80;;;3.40;99.90;;;;;;5008964;28;20398;-79
2023/03/29 09:05:35;;;;;;;6.75;5.07;;;3.50;99.90;;;;;;5023515;28;20065;-69
2023/03/29 09:08:30;;;;;;;9.98;5.55;;;3.50;99.90;;;;;;5000444;28;20085;-72
2023/03/29 09:11:25;;;;;;;8.07;5.18;;;3.50;99.90;;;;;;5005874;28;20046;-76
2023/03/29 09:14:10;;;;;;;6.68;4.43;;;3.40;99.90;;;;;;5003904;28;20061;-77
2023/03/29 09:16:48;;;;;;;6.18;3.95;;;3.30;99.90;;;;;;5011115;28;20459;-75
2023/03/29 09:19:26;;;;;;;6.38;4.32;;;3.20;99.90;;;;;;5004049;28;20078;-75
2023/03/29 09:22:03;;;;;;;7.63;4.60;;;3.20;99.90;;;;;;5001507;28;20057;-75
2023/03/29 09:24:46;;;;;;;10.35;4.72;;;3.10;99.90;;;;;;5009712;28;20140;-77
2023/03/29 09:27:23;;;;;;;6.05;4.40;;;3.00;99.90;;;;;;5025157;28;20156;-78
2023/03/29 09:30:06;;;;;;;4.72;4.20;;;2.80;99.90;;;;;;4999855;28;20058;-75
2023/03/29 09:32:58;;;;;;;4.97;3.80;;;2.60;99.90;;;;;;4993454;28;20069;-76
2023/03/29 09:35:47;;;;;;;6.03;4.13;;;2.50;99.90;;;;;;4995415;28;20057;-76
2023/03/29 09:38:18;;;;;;;7.70;4.68;;;2.50;99.90;;;;;;5010954;28;20474;-78
2023/03/29 09:40:50;;;;;;;7.05;4.65;;;2.40;99.90;;;;;;5027199;28;20057;-76
2023/03/29 09:43:30;;;;;;;7.32;3.88;;;2.40;99.90;;;;;;5026552;28;20136;-76
2023/03/29 09:46:04;;;;;;;8.95;5.63;;;2.40;99.90;;;;;;5009753;28;20052;-76
2023/03/29 09:48:40;;;;;;;6.00;3.83;;;2.30;99.90;;;;;;5003629;28;20057;-76
2023/03/29 09:51:10;;;;;;;4.25;3.67;;;2.40;99.90;;;;;;4999638;28;20054;-71
2023/03/29 09:53:39;;;;;;;6.93;4.53;;;2.40;99.90;;;;;;4993459;28;20049;-71
2023/03/29 09:56:26;;;;;;;6.28;4.43;;;2.40;99.90;;;;;;5007464;28;20050;-76
2023/03/29 09:59:02;;;;;;;7.65;4.32;;;2.50;99.90;;;;;;5004742;28;20066;-77
2023/03/29 10:01:38;;;;;;;6.80;3.97;;;2.50;99.90;;;;;;5007916;28;20510;-77
2023/03/29 10:04:11;;;;;;;4.97;3.63;;;2.60;99.90;;;;;;5009783;28;20054;-76
2023/03/29 10:06:48;;;;;;;5.80;3.88;;;2.60;99.90;;;;;;5025988;28;20421;-72
2023/03/29 10:09:20;;;;;;;7.65;3.83;;;2.70;99.90;;;;;;4993179;28;20108;-76
2023/03/29 10:11:52;;;;;;;;;;;2.70;99.90;;;;;;5003606;28;20057;-77
2023/03/29 10:14:28;;;;;;;5.32;3.80;;;2.80;99.90;;;;;;5010072;28;19933;-77
2023/03/29 10:16:57;;;;;;;5.40;4.15;;;2.80;99.90;;;;;;5007246;28;20080;-77
2023/03/29 10:19:33;;;;;;;7.00;4.00;;;2.80;99.90;;;;;;5010156;28;20474;-76
2023/03/29 10:22:03;;;;;;;5.45;3.50;;;2.80;99.90;;;;;;5005538;28;20062;-76
2023/03/29 10:24:31;;;;;;;3.70;3.13;;;2.80;99.90;;;;;;4992691;28;20576;-78
2023/03/29 10:27:02;;;;;;;3.60;3.25;;;2.80;99.90;;;;;;5007686;28;20042;-76
2023/03/29 10:29:37;;;;;;;6.83;3.77;;;2.80;99.90;;;;;;4991861;28;20276;-76
2023/03/29 10:32:16;;;;;;;5.43;3.42;;;2.80;99.90;;;;;;4989488;28;20046;-77
2023/03/29 10:34:46;;;;;;;4.78;3.80;;;2.80;99.90;;;;;;5003780;28;20066;-77
2023/03/29 10:37:17;;;;;;;5.40;3.53;;;2.90;99.90;;;;;;5010871;28;20391;-76
2023/03/29 10:39:47;;;;;;;6.07;4.32;;;3.00;99.90;;;;;;5008141;28;20045;-74
2023/03/29 10:42:17;;;;;;;6.75;4.45;;;3.00;99.90;;;;;;5002430;28;20145;-78
2023/03/29 10:44:54;;;;;;;5.10;3.90;;;3.10;99.90;;;;;;4996095;28;20109;-75
2023/03/29 10:47:22;;;;;;;5.97;3.47;;;3.20;99.90;;;;;;5025391;28;20058;-75
2023/03/29 10:49:54;;;;;;;7.20;4.20;;;3.20;99.90;;;;;;4999359;28;20062;-75
2023/03/29 10:52:23;;;;;;;6.93;4.43;;;3.20;99.90;;;;;;5002317;28;20128;-76
2023/03/29 10:54:54;;;;;;;6.97;4.28;;;3.10;99.90;;;;;;4998028;28;20148;-75
2023/03/29 10:57:33;;;;;;;5.38;3.58;;;3.10;99.90;;;;;;4988562;28;20492;-74
2023/03/29 11:00:09;;;;;;;5.35;3.90;;;3.00;99.90;;;;;;5000699;28;20062;-72
2023/03/29 11:03:11;;;;;;;4.57;3.58;;;2.90;99.90;;;;;;4991113;28;20058;-74
2023/03/29 11:05:49;;;;;;;6.90;4.50;;;2.80;99.90;;;;;;4995750;28;20062;-73
2023/03/29 11:08:43;;;;;;;7.10;4.75;;;2.70;99.90;;;;;;4998179;28;21030;-76
2023/03/29 11:11:42;;;;;;;5.13;3.40;;;2.70;99.90;;;;;;4999726;28;20104;-79
2023/03/29 11:14:22;;;;;;;5.68;4.53;;;2.60;99.90;;;;;;5000112;28;20061;-78
2023/03/29 11:17:01;;;;;;;12.77;6.80;;;2.40;99.90;;;;;;5001571;28;20415;-77
2023/03/29 11:19:46;;;;;;;4.78;3.55;;;2.40;99.90;;;;;;5004972;28;20396;-75
2023/03/29 11:22:24;;;;;;;10.27;5.03;;;2.20;99.90;;;;;;4987147;28;20562;-73
2023/03/29 11:25:14;;;;;;;6.70;3.88;;;2.20;99.90;;;;;;5001534;28;20326;-78
2023/03/29 11:27:49;;;;;;;7.15;4.70;;;2.10;99.90;;;;;;5001677;28;20056;-78
2023/03/29 11:30:23;;;;;;;10.13;4.00;;;2.00;99.90;;;;;;5004929;28;20104;-78
2023/03/29 11:33:03;;;;;;;5.00;3.38;;;2.00;99.90;;;;;;4997406;28;20050;-78
2023/03/29 11:35:46;;;;;;;4.38;3.30;;;1.90;99.90;;;;;;4996343;28;20405;-79
2023/03/29 11:38:25;;;;;;;4.97;2.67;;;2.00;99.90;;;;;;5000534;28;20613;-78
2023/03/29 11:41:02;;;;;;;6.80;3.95;;;2.00;99.90;;;;;;5006220;28;20068;-74
2023/03/29 11:43:35;;;;;;;13.35;6.80;;;2.10;99.90;;;;;;5005356;28;20049;-74
2023/03/29 11:46:15;;;;;;;4.57;3.33;;;2.00;99.90;;;;;;5000070;28;20560;-75
2023/03/29 11:48:50;;;;;;;4.47;3.88;;;2.00;99.90;;;;;;5003324;28;20669;-75
2023/03/29 11:51:24;;;;;;;5.90;3.92;;;2.00;99.90;;;;;;5001533;28;20042;-77
2023/03/29 11:54:05;;;;;;;6.15;3.00;;;2.10;99.90;;;;;;5006377;28;20061;-74
2023/03/29 11:56:43;;;;;;;4.40;2.95;;;2.10;99.90;;;;;;5003873;28;20045;-74
2023/03/29 11:59:21;;;;;;;3.72;3.30;;;2.10;99.90;;;;;;4987501;28;20058;-79
2023/03/29 12:01:53;;;;;;;4.18;2.88;;;2.10;99.90;;;;;;5001848;28;20038;-74
2023/03/29 12:04:29;;;;;;;3.30;3.00;;;2.10;99.90;;;;;;5006764;28;20053;-79
2023/03/29 12:07:13;;;;;;;5.70;3.38;;;2.10;99.90;;;;;;4997628;28;20053;-77
2023/03/29 12:09:49;;;;;;;7.00;3.22;;;2.10;99.90;;;;;;4996632;28;20097;-73
2023/03/29 12:12:23;;;;;;;4.13;3.25;;;2.10;99.90;;;;;;5006608;28;20069;-73
2023/03/29 12:15:03;;;;;;;5.15;2.90;;;2.20;99.90;;;;;;4997021;28;20053;-74
2023/03/29 12:17:37;;;;;;;4.43;3.13;;;2.20;99.90;;;;;;5002603;28;20050;-74
2023/03/29 12:20:13;;;;;;;5.05;3.40;;;2.20;99.90;;;;;;4998334;28;20084;-79
2023/03/29 12:22:47;;;;;;;4.63;3.30;;;2.30;99.90;;;;;;4996115;28;20046;-78
2023/03/29 12:25:21;;;;;;;11.25;7.18;;;2.20;99.90;;;;;;5003188;28;20054;-79
2023/03/29 12:28:12;;;;;;;5.18;3.88;;;2.20;99.90;;;;;;5004866;28;20046;-78
2023/03/29 12:30:53;;;;;;;8.30;4.10;;;2.20;99.90;;;;;;5002396;28;20115;-79
2023/03/29 12:33:57;;;;;;;3.58;2.70;;;2.20;99.90;;;;;;5002007;28;20084;-79
2023/03/29 12:37:30;;;;;;;5.03;2.67;;;2.20;99.90;;;;;;4983752;28;20057;-73
2023/03/29 12:40:21;;;;;;;3.38;2.65;;;2.20;99.90;;;;;;4995047;28;20054;-79
2023/03/29 12:43:25;;;;;;;4.60;2.47;;;2.30;99.90;;;;;;4995213;28;20069;-74
2023/03/29 12:46:18;;;;;;;5.53;2.90;;;2.30;99.90;;;;;;5006133;28;20410;-74
2023/03/29 12:48:49;;;;;;;3.58;2.55;;;2.30;99.90;;;;;;5021163;28;20060;-73
2023/03/29 12:51:21;;;;;;;3.65;2.88;;;2.20;99.90;;;;;;4995900;28;20057;-73
2023/03/29 12:53:51;;;;;;;2.78;2.53;;;2.10;99.90;;;;;;4976262;28;20467;-73
2023/03/29 12:56:23;;;;;;;5.00;2.63;;;2.10;99.90;;;;;;5007225;28;20054;-79
2023/03/29 12:58:56;;;;;;;4.55;2.90;;;2.10;99.90;;;;;;5001413;28;20136;-79
2023/03/29 13:01:31;;;;;;;5.93;2.67;;;2.00;99.90;;;;;;4993474;28;20052;-78
2023/03/29 13:04:17;;;;;;;3.58;2.95;;;2.00;99.90;;;;;;4999757;28;20060;-79
2023/03/29 13:07:04;;;;;;;6.10;2.83;;;2.00;99.90;;;;;;4988229;28;20061;-79
2023/03/29 13:09:36;;;;;;;4.45;3.00;;;2.00;99.90;;;;;;4977018;28;20065;-80
2023/03/29 13:12:23;;;;;;;4.70;2.38;;;2.10;99.90;;;;;;5006403;28;20104;-80
2023/03/29 13:14:54;;;;;;;3.13;2.75;;;2.20;99.90;;;;;;4989941;28;20038;-78
2023/03/29 13:17:40;;;;;;;4.03;2.80;;;2.20;99.90;;;;;;5002649;28;20050;-78
2023/03/29 13:20:37;;;;;;;3.90;3.35;;;2.20;99.90;;;;;;5003266;28;20545;-79
2023/03/29 13:23:25;;;;;;;6.28;3.08;;;2.20;99.90;;;;;;4993238;28;20146;-79
2023/03/29 13:26:13;;;;;;;4.07;3.08;;;2.10;99.90;;;;;;5005009;28;20462;-79
2023/03/29 13:29:02;;;;;;;4.35;3.17;;;2.10;99.90;;;;;;4998779;28;20100;-78
2023/03/29 13:31:37;;;;;;;4.22;3.22;;;2.00;99.90;;;;;;5006976;28;20042;-81
2023/03/29 13:34:25;;;;;;;3.13;2.80;;;2.00;99.90;;;;;;4996463;28;20042;-80
2023/03/29 13:37:08;;;;;;;5.13;2.83;;;2.00;99.90;;;;;;4998294;28;20058;-79
2023/03/29 13:39:38;;;;;;;4.70;3.03;;;1.90;99.90;;;;;;5001630;28;20065;-78
2023/03/29 13:42:21;;;;;;;5.93;3.03;;;1.80;99.90;;;;;;5003476;28;20054;-80